Time;durP1;ratioP1;P1;durP2;ratioP2;P2;SDS_P1;SDS_P2;PMS_P1;PMS_P2;Temp;Humidity;BMP_temperature;BMP_pressure;BME280_temperature;BME280_humidity;BME280_pressure;Samples;Min_cycle;Max_cycle;Signal;HPM_P1;HPM_P2
2023/05/13 00:01:39;;;;;;;0.80;0.80;;;19.60;69.00;;;;;;5079993;27;44724;-70
2023/05/13 00:04:08;;;;;;;0.87;0.87;;;19.60;69.00;;;;;;5069056;28;43454;-70
2023/05/13 00:06:35;;;;;;;1.00;1.00;;;19.60;68.90;;;;;;5083267;27;43428;-70
2023/05/13 00:09:04;;;;;;;0.83;0.83;;;19.60;69.00;;;;;;5068232;28;46002;-70
2023/05/13 00:11:32;;;;;;;0.90;0.90;;;19.50;69.20;;;;;;5080422;28;43451;-70
2023/05/13 00:14:00;;;;;;;0.97;0.97;;;19.50;69.50;;;;;;5083310;27;44012;-70
2023/05/13 00:16:29;;;;;;;0.80;0.80;;;19.60;69.40;;;;;;5081978;27;43363;-70
2023/05/13 00:18:59;;;;;;;1.00;1.00;;;19.60;69.30;;;;;;5085789;28;43867;-70
2023/05/13 00:21:27;;;;;;;1.00;1.00;;;19.60;69.10;;;;;;5079863;28;43340;-70
2023/05/13 00:23:55;;;;;;;0.90;0.90;;;19.60;69.20;;;;;;5088997;28;43421;-70
2023/05/13 00:26:23;;;;;;;0.80;0.80;;;19.50;69.40;;;;;;5082021;28;43418;-70
2023/05/13 00:28:51;;;;;;;0.90;0.90;;;19.50;69.50;;;;;;5088607;28;43794;-70
2023/05/13 00:31:19;;;;;;;0.90;0.90;;;19.50;69.40;;;;;;5083173;28;43429;-70
2023/05/13 00:33:47;;;;;;;0.90;0.90;;;19.50;69.30;;;;;;5078077;28;43414;-70
2023/05/13 00:36:19;;;;;;;0.80;0.80;;;19.50;69.40;;;;;;5081230;27;43885;-71
2023/05/13 00:38:47;;;;;;;0.90;0.90;;;19.40;69.60;;;;;;5086392;28;46005;-70
2023/05/13 00:41:15;;;;;;;1.00;1.00;;;19.40;69.80;;;;;;5087809;28;43400;-70
2023/05/13 00:43:43;;;;;;;0.73;0.73;;;19.50;69.50;;;;;;5074665;28;43427;-70
2023/05/13 00:46:11;;;;;;;1.10;1.10;;;19.60;69.10;;;;;;5087834;28;43450;-70
2023/05/13 00:48:39;;;;;;;1.10;1.10;;;19.80;68.80;;;;;;5083056;28;44050;-70
2023/05/13 00:51:07;;;;;;;0.70;0.70;;;19.80;68.50;;;;;;5087796;28;44673;-69
2023/05/13 00:53:38;;;;;;;0.90;0.90;;;19.80;68.40;;;;;;5085183;27;43772;-70
2023/05/13 00:56:06;;;;;;;0.97;0.97;;;19.80;68.50;;;;;;5079051;28;43643;-70
2023/05/13 00:58:34;;;;;;;0.80;0.80;;;19.70;68.60;;;;;;5075212;28;44043;-70
2023/05/13 01:01:07;;;;;;;0.90;0.90;;;19.60;68.80;;;;;;5085636;28;43434;-72
2023/05/13 01:03:38;;;;;;;0.87;0.87;;;19.60;69.30;;;;;;5072550;28;43444;-70
2023/05/13 01:06:10;;;;;;;0.90;0.90;;;19.50;69.20;;;;;;5073473;28;43403;-70
2023/05/13 01:08:46;;;;;;;0.93;0.93;;;19.50;69.20;;;;;;5081354;28;44331;-71
2023/05/13 01:11:15;;;;;;;0.90;0.90;;;19.50;69.20;;;;;;5077055;28;45464;-70
2023/05/13 01:13:46;;;;;;;0.90;0.90;;;19.40;69.20;;;;;;5081201;28;43426;-70
2023/05/13 01:16:18;;;;;;;0.80;0.80;;;19.50;69.70;;;;;;5082048;28;43604;-70
2023/05/13 01:18:49;;;;;;;1.70;0.90;;;19.40;69.60;;;;;;5082763;27;43622;-70
2023/05/13 01:21:23;;;;;;;0.90;0.90;;;19.40;69.50;;;;;;5082067;28;44914;-70
2023/05/13 01:23:51;;;;;;;0.80;0.80;;;19.50;69.50;;;;;;5083024;28;43316;-70
2023/05/13 01:26:19;;;;;;;0.90;0.90;;;19.40;69.50;;;;;;5069938;27;43450;-70
2023/05/13 01:28:47;;;;;;;0.90;0.90;;;19.40;69.70;;;;;;5074730;27;45903;-70
2023/05/13 01:31:15;;;;;;;0.80;0.80;;;19.40;69.90;;;;;;5083113;28;43459;-70
2023/05/13 01:33:43;;;;;;;0.83;0.83;;;19.50;69.80;;;;;;5082446;28;43431;-70
2023/05/13 01:36:14;;;;;;;0.77;0.77;;;19.60;69.30;;;;;;5083761;27;43669;-70
2023/05/13 01:38:44;;;;;;;0.90;0.90;;;19.70;68.80;;;;;;5083057;28;45851;-70
2023/05/13 01:41:12;;;;;;;0.77;0.77;;;19.80;68.60;;;;;;5084009;28;44593;-70
2023/05/13 01:43:40;;;;;;;0.90;0.90;;;19.80;68.50;;;;;;5086928;28;44112;-70
2023/05/13 01:46:12;;;;;;;0.90;0.90;;;19.70;68.50;;;;;;5082635;28;43374;-70
2023/05/13 01:48:40;;;;;;;0.77;0.77;;;19.70;68.70;;;;;;5079264;28;46154;-70
2023/05/13 01:51:08;;;;;;;0.90;0.90;;;19.60;69.00;;;;;;5087458;28;44773;-70
2023/05/13 01:53:36;;;;;;;0.90;0.90;;;19.60;69.30;;;;;;5079972;28;43421;-70
2023/05/13 01:56:08;;;;;;;0.80;0.80;;;19.50;69.20;;;;;;5082896;28;43487;-71
2023/05/13 01:58:37;;;;;;;0.87;0.87;;;19.50;69.20;;;;;;5080795;27;45419;-70
2023/05/13 02:01:05;;;;;;;0.90;0.90;;;19.40;69.20;;;;;;5082761;27;44535;-70
2023/05/13 02:03:33;;;;;;;1.00;1.00;;;19.40;69.30;;;;;;5075442;28;43393;-71
2023/05/13 02:06:01;;;;;;;0.90;0.90;;;19.40;69.80;;;;;;5088550;28;43461;-70
2023/05/13 02:08:29;;;;;;;0.80;0.80;;;19.40;69.70;;;;;;5073316;28;45946;-70
2023/05/13 02:10:58;;;;;;;1.00;1.00;;;19.40;69.50;;;;;;5080989;28;43464;-70
2023/05/13 02:13:29;;;;;;;0.80;0.80;;;19.40;69.50;;;;;;5082294;28;43525;-70
2023/05/13 02:15:57;;;;;;;0.90;0.90;;;19.40;69.60;;;;;;5076716;28;43990;-72
2023/05/13 02:18:25;;;;;;;0.90;0.90;;;19.30;69.80;;;;;;5080785;28;43703;-70
2023/05/13 02:20:53;;;;;;;0.80;0.80;;;19.40;70.00;;;;;;5088198;28;43897;-70
2023/05/13 02:23:21;;;;;;;0.80;0.80;;;19.50;69.70;;;;;;5076883;27;43468;-71
2023/05/13 02:25:49;;;;;;;0.80;0.80;;;19.60;69.20;;;;;;5081774;28;43650;-70
2023/05/13 02:28:17;;;;;;;0.90;0.90;;;19.70;68.80;;;;;;5072998;28;43935;-70
2023/05/13 02:30:47;;;;;;;0.90;0.90;;;19.80;68.60;;;;;;5071528;28;44749;-70
2023/05/13 02:33:15;;;;;;;0.90;0.90;;;19.80;68.50;;;;;;5068442;28;43459;-70
2023/05/13 02:35:43;;;;;;;0.87;0.87;;;19.70;68.50;;;;;;5070040;27;43477;-70
2023/05/13 02:38:11;;;;;;;0.90;0.90;;;19.60;68.60;;;;;;5079676;28;43898;-70
2023/05/13 02:40:39;;;;;;;0.80;0.80;;;19.60;69.00;;;;;;5086454;28;43346;-70
2023/05/13 02:43:07;;;;;;;0.70;0.70;;;19.50;69.20;;;;;;5086254;28;43798;-70
2023/05/13 02:45:50;;;;;;;0.90;0.90;;;19.50;69.20;;;;;;5087295;28;43431;-70
2023/05/13 02:48:18;;;;;;;0.80;0.80;;;19.50;69.20;;;;;;5076231;28;43741;-70
2023/05/13 02:50:46;;;;;;;1.00;1.00;;;19.40;69.20;;;;;;5065607;28;44933;-70
2023/05/13 02:53:14;;;;;;;0.70;0.70;;;19.40;69.50;;;;;;5082069;28;43370;-70
2023/05/13 02:55:49;;;;;;;0.70;0.70;;;19.40;69.70;;;;;;5080617;27;43909;-70
2023/05/13 02:58:17;;;;;;;0.80;0.80;;;19.40;70.30;;;;;;5080652;28;46109;-69
2023/05/13 03:00:47;;;;;;;0.90;0.90;;;19.40;69.50;;;;;;5081166;27;43366;-70
2023/05/13 03:03:16;;;;;;;0.90;0.90;;;19.40;69.60;;;;;;5083048;27;43371;-70
2023/05/13 03:05:46;;;;;;;1.00;1.00;;;19.40;69.70;;;;;;5071843;28;43526;-70
2023/05/13 03:08:14;;;;;;;0.90;0.90;;;19.30;69.90;;;;;;5082531;28;46015;-70
2023/05/13 03:10:42;;;;;;;1.00;1.00;;;19.40;69.80;;;;;;5082442;28;43453;-70
2023/05/13 03:13:10;;;;;;;1.00;1.00;;;19.40;69.70;;;;;;5077080;28;43475;-70
2023/05/13 03:15:40;;;;;;;1.40;1.30;;;19.30;69.60;;;;;;5078931;28;43422;-70
2023/05/13 03:18:11;;;;;;;1.87;1.70;;;19.30;69.70;;;;;;5071992;28;45616;-71
2023/05/13 03:20:40;;;;;;;2.87;2.10;;;19.30;70.00;;;;;;5072021;28;43971;-70
2023/05/13 03:23:08;;;;;;;2.57;1.87;;;19.40;70.10;;;;;;5081499;28;43494;-70
2023/05/13 03:25:36;;;;;;;2.30;2.10;;;19.50;69.80;;;;;;5081392;28;43467;-70
2023/05/13 03:28:05;;;;;;;3.80;2.13;;;19.60;69.30;;;;;;5080527;28;43979;-70
2023/05/13 03:30:37;;;;;;;2.53;2.33;;;19.70;68.70;;;;;;5082552;28;43838;-70
2023/05/13 03:33:10;;;;;;;2.43;2.10;;;19.80;68.50;;;;;;5069767;27;43525;-70
2023/05/13 03:35:40;;;;;;;3.27;2.40;;;19.80;68.40;;;;;;5081938;28;43414;-70
2023/05/13 03:38:08;;;;;;;5.57;2.83;;;19.70;68.50;;;;;;5080569;28;46310;-70
2023/05/13 03:40:41;;;;;;;2.63;2.43;;;19.60;68.60;;;;;;5065561;28;43461;-70
2023/05/13 03:43:09;;;;;;;3.80;2.97;;;19.60;69.60;;;;;;5081201;28;43429;-70
2023/05/13 03:45:40;;;;;;;3.63;2.70;;;19.50;69.30;;;;;;5077961;28;43453;-70
2023/05/13 03:48:12;;;;;;;2.93;2.63;;;19.50;69.40;;;;;;5074350;27;43814;-70
2023/05/13 03:50:42;;;;;;;5.63;3.10;;;19.40;69.20;;;;;;5065839;28;43509;-70
2023/05/13 03:53:10;;;;;;;3.53;2.80;;;19.40;69.10;;;;;;5087417;27;43483;-70
2023/05/13 03:55:40;;;;;;;3.93;3.00;;;19.40;69.30;;;;;;5078899;27;43458;-70
2023/05/13 03:58:13;;;;;;;5.60;3.80;;;19.40;69.60;;;;;;5086448;28;43893;-70
2023/05/13 04:00:41;;;;;;;3.93;3.47;;;19.40;69.80;;;;;;5078457;28;44987;-70
2023/05/13 04:03:09;;;;;;;4.83;3.23;;;19.30;69.50;;;;;;5084345;28;43490;-70
2023/05/13 04:05:37;;;;;;;3.67;2.80;;;19.40;69.60;;;;;;5083590;28;43572;-70
2023/05/13 04:08:06;;;;;;;4.60;3.30;;;19.40;69.60;;;;;;5083718;27;45841;-70
2023/05/13 04:10:34;;;;;;;2.90;2.70;;;19.30;69.60;;;;;;5084234;28;44587;-70
2023/05/13 04:13:02;;;;;;;4.33;3.40;;;19.30;69.90;;;;;;5084492;28;43430;-72
2023/05/13 04:15:31;;;;;;;3.83;3.03;;;19.40;69.80;;;;;;5084482;28;43376;-70
2023/05/13 04:17:59;;;;;;;3.73;3.27;;;19.50;69.60;;;;;;5081217;28;44111;-71
2023/05/13 04:20:28;;;;;;;6.43;3.07;;;19.60;69.10;;;;;;5080127;28;43419;-71
2023/05/13 04:22:56;;;;;;;3.20;2.90;;;19.70;68.60;;;;;;5081668;28;43372;-72
2023/05/13 04:25:25;;;;;;;3.23;2.93;;;19.80;68.50;;;;;;5086088;28;43536;-70
2023/05/13 04:27:53;;;;;;;4.07;3.10;;;19.80;68.30;;;;;;5084132;28;45442;-70
2023/05/13 04:30:29;;;;;;;3.00;2.80;;;19.70;68.30;;;;;;5087194;28;45278;-70
2023/05/13 04:32:57;;;;;;;5.07;3.60;;;19.60;68.50;;;;;;5082313;28;43970;-70
2023/05/13 04:35:25;;;;;;;3.93;3.13;;;19.60;69.00;;;;;;5082274;28;43509;-69
2023/05/13 04:37:57;;;;;;;4.43;3.30;;;19.50;69.20;;;;;;5087721;28;45903;-70
2023/05/13 04:40:27;;;;;;;3.00;2.70;;;19.60;69.20;;;;;;5089331;27;43991;-69
2023/05/13 04:42:58;;;;;;;3.33;3.03;;;19.50;69.10;;;;;;5084112;27;44061;-71
2023/05/13 04:45:31;;;;;;;3.33;3.03;;;19.50;69.20;;;;;;5085091;28;43526;-70
2023/05/13 04:48:00;;;;;;;3.80;3.00;;;19.50;69.50;;;;;;5080820;27;44069;-70
2023/05/13 04:50:28;;;;;;;4.90;3.40;;;19.40;69.70;;;;;;5085659;27;43983;-70
2023/05/13 04:52:57;;;;;;;4.40;2.80;;;19.40;69.50;;;;;;5082289;28;43398;-70
2023/05/13 04:55:26;;;;;;;3.37;3.10;;;19.40;69.40;;;;;;5073992;28;43435;-70
2023/05/13 04:57:56;;;;;;;3.33;3.03;;;19.40;69.50;;;;;;5072332;27;44862;-70
2023/05/13 05:00:26;;;;;;;3.30;3.00;;;19.40;69.50;;;;;;5072723;28;44801;-70
2023/05/13 05:02:55;;;;;;;3.37;3.07;;;19.30;69.70;;;;;;5069074;27;43387;-71
2023/05/13 05:05:23;;;;;;;4.93;3.73;;;19.40;70.00;;;;;;5070583;28;43639;-70
2023/05/13 05:07:52;;;;;;;4.23;3.70;;;19.40;69.60;;;;;;5082035;28;46021;-70
2023/05/13 05:10:21;;;;;;;4.30;3.63;;;19.60;69.30;;;;;;5071797;28;45027;-70
2023/05/13 05:12:55;;;;;;;4.67;3.23;;;19.80;68.80;;;;;;5077605;28;43455;-70
2023/05/13 05:15:24;;;;;;;4.03;3.30;;;19.80;68.60;;;;;;5085461;27;43544;-70
2023/05/13 05:17:55;;;;;;;3.40;3.10;;;19.80;68.40;;;;;;5083527;28;44026;-70
2023/05/13 05:20:24;;;;;;;3.57;3.27;;;19.70;68.30;;;;;;5080628;28;43524;-70
2023/05/13 05:22:55;;;;;;;3.07;2.87;;;19.70;68.50;;;;;;5084145;28;43417;-70
2023/05/13 05:25:26;;;;;;;4.37;3.73;;;19.60;68.70;;;;;;5073760;27;43431;-70
2023/05/13 05:27:56;;;;;;;4.03;3.07;;;19.50;69.20;;;;;;5083817;28;45035;-70
2023/05/13 05:30:24;;;;;;;4.03;3.10;;;19.50;69.20;;;;;;5086651;28;45088;-70
2023/05/13 05:33:00;;;;;;;3.23;3.03;;;19.50;69.20;;;;;;5077155;28;43449;-70
2023/05/13 05:35:28;;;;;;;4.80;3.40;;;19.50;69.20;;;;;;5084433;28;43604;-70
2023/05/13 05:37:57;;;;;;;3.50;3.30;;;19.40;69.30;;;;;;5083108;28;46000;-70
2023/05/13 05:40:25;;;;;;;3.57;3.20;;;19.40;69.60;;;;;;5080028;28;45045;-70
2023/05/13 05:42:55;;;;;;;3.40;3.10;;;19.40;69.80;;;;;;5082907;28;43463;-70
2023/05/13 05:45:23;;;;;;;3.37;3.03;;;19.40;69.50;;;;;;5084820;28;43573;-69
2023/05/13 05:47:52;;;;;;;3.33;3.03;;;19.40;69.50;;;;;;5085423;28;46096;-70
2023/05/13 05:50:23;;;;;;;2.80;2.67;;;19.40;69.50;;;;;;5083266;27;44611;-70
2023/05/13 05:52:55;;;;;;;4.70;3.37;;;19.30;69.50;;;;;;5079150;28;43441;-70
2023/05/13 05:55:27;;;;;;;3.40;3.10;;;19.30;70.00;;;;;;5080955;28;43492;-70
2023/05/13 05:57:56;;;;;;;3.30;3.10;;;19.40;69.90;;;;;;5078435;28;43611;-70
2023/05/13 06:00:25;;;;;;;3.10;2.90;;;19.40;69.60;;;;;;5069670;28;45105;-70
2023/05/13 06:02:55;;;;;;;3.27;2.97;;;19.30;69.60;;;;;;5063604;28;43458;-70
2023/05/13 06:05:24;;;;;;;3.43;2.83;;;19.30;69.60;;;;;;5075422;28;44000;-70
2023/05/13 06:07:51;;;;;;;3.63;3.33;;;19.30;69.80;;;;;;5085782;28;43921;-70
2023/05/13 06:10:19;;;;;;;4.03;3.03;;;19.30;70.00;;;;;;5083332;28;44914;-70
2023/05/13 06:12:49;;;;;;;3.33;3.03;;;19.40;69.80;;;;;;5086666;28;43443;-70
2023/05/13 06:15:19;;;;;;;3.73;3.40;;;19.50;69.40;;;;;;5078706;28;43556;-70
2023/05/13 06:17:47;;;;;;;3.03;2.83;;;19.70;69.60;;;;;;5072727;28;46219;-70
2023/05/13 06:20:15;;;;;;;3.20;3.00;;;19.80;68.40;;;;;;5084655;28;44027;-70
2023/05/13 06:22:43;;;;;;;3.53;3.23;;;19.80;68.30;;;;;;5071869;27;43401;-70
2023/05/13 06:25:11;;;;;;;3.10;2.90;;;19.80;68.20;;;;;;5075500;27;43485;-70
2023/05/13 06:27:40;;;;;;;3.30;3.10;;;19.70;68.30;;;;;;5078072;28;45841;-70
2023/05/13 06:30:09;;;;;;;3.03;2.83;;;19.70;68.60;;;;;;5085611;28;43994;-69
2023/05/13 06:32:43;;;;;;;3.50;3.20;;;19.60;69.00;;;;;;5080750;28;43435;-70
2023/05/13 06:35:27;;;;;;;3.33;3.03;;;19.60;69.20;;;;;;5079212;27;43444;-70
2023/05/13 06:37:55;;;;;;;2.83;2.70;;;19.60;69.20;;;;;;5082826;28;45556;-70
2023/05/13 06:40:23;;;;;;;3.03;2.80;;;19.50;69.20;;;;;;5082604;27;44619;-70
2023/05/13 06:42:52;;;;;;;3.10;2.90;;;19.40;69.20;;;;;;5085716;27;43425;-71
2023/05/13 06:45:22;;;;;;;2.90;2.60;;;19.40;69.50;;;;;;5073932;28;43478;-70
2023/05/13 06:47:52;;;;;;;3.40;2.93;;;19.40;69.80;;;;;;5072393;28;45770;-70
2023/05/13 06:50:20;;;;;;;2.83;2.67;;;19.40;69.70;;;;;;5079033;28;43415;-70
2023/05/13 06:52:48;;;;;;;3.00;2.80;;;19.40;69.60;;;;;;5082157;28;43391;-70
2023/05/13 06:55:17;;;;;;;2.77;2.67;;;19.30;69.60;;;;;;5072970;28;43499;-70
2023/05/13 06:57:46;;;;;;;2.90;2.70;;;19.30;69.70;;;;;;5077095;28;43699;-70
2023/05/13 07:00:17;;;;;;;2.90;2.70;;;19.30;70.00;;;;;;5081934;28;43404;-70
2023/05/13 07:02:46;;;;;;;3.00;2.80;;;19.30;70.00;;;;;;5073328;27;43406;-72
2023/05/13 07:05:15;;;;;;;3.13;2.90;;;19.40;69.80;;;;;;5079786;28;43472;-71
2023/05/13 07:07:43;;;;;;;3.63;3.33;;;19.60;69.40;;;;;;5072533;28;45749;-69
2023/05/13 07:10:11;;;;;;;3.13;2.93;;;19.70;69.00;;;;;;5085869;28;43386;-70
2023/05/13 07:12:39;;;;;;;3.07;2.87;;;19.70;68.80;;;;;;5084501;28;43854;-70
2023/05/13 07:15:08;;;;;;;2.80;2.60;;;19.70;68.70;;;;;;5076233;28;43609;-69
2023/05/13 07:17:36;;;;;;;3.00;2.80;;;19.60;68.70;;;;;;5074441;28;45403;-70
2023/05/13 07:20:04;;;;;;;2.90;2.70;;;19.60;69.00;;;;;;5085462;28;44977;-70
2023/05/13 07:22:34;;;;;;;3.30;3.00;;;19.50;69.10;;;;;;5083127;28;43419;-71
2023/05/13 07:25:02;;;;;;;3.17;2.90;;;19.40;69.50;;;;;;5083426;28;43783;-70
2023/05/13 07:27:30;;;;;;;2.70;2.60;;;19.50;69.60;;;;;;5065521;28;43930;-70
2023/05/13 07:30:00;;;;;;;2.43;2.33;;;19.40;69.50;;;;;;5073675;28;43351;-70
2023/05/13 07:32:29;;;;;;;2.67;2.47;;;19.40;69.50;;;;;;5072938;28;44015;-71
2023/05/13 07:34:57;;;;;;;3.30;3.00;;;19.40;69.60;;;;;;5072469;28;44034;-70
2023/05/13 07:37:25;;;;;;;2.80;2.70;;;19.30;69.90;;;;;;5083097;27;43963;-70
2023/05/13 07:39:54;;;;;;;3.00;2.67;;;19.30;69.80;;;;;;5080705;28;43358;-71
2023/05/13 07:42:26;;;;;;;2.63;2.53;;;19.40;69.80;;;;;;5077761;28;43458;-70
2023/05/13 07:44:54;;;;;;;2.93;2.73;;;19.30;69.60;;;;;;5073607;28;43433;-70
2023/05/13 07:47:22;;;;;;;3.03;2.83;;;19.30;69.70;;;;;;5077506;28;44331;-70
2023/05/13 07:49:50;;;;;;;2.90;2.70;;;19.30;69.90;;;;;;5082088;27;43400;-70
2023/05/13 07:52:17;;;;;;;2.77;2.67;;;19.30;70.10;;;;;;5079101;28;43410;-70
2023/05/13 07:54:45;;;;;;;2.70;2.50;;;19.40;69.90;;;;;;5079704;27;43653;-70
2023/05/13 07:57:15;;;;;;;2.50;2.40;;;19.50;69.50;;;;;;5080339;28;43941;-70
2023/05/13 07:59:43;;;;;;;3.00;2.80;;;19.60;69.00;;;;;;5074069;28;43369;-70
2023/05/13 08:02:11;;;;;;;2.93;2.73;;;19.70;68.80;;;;;;5081278;27;43450;-70
2023/05/13 08:04:39;;;;;;;3.17;2.97;;;19.70;68.70;;;;;;5078496;28;43711;-70
2023/05/13 08:07:08;;;;;;;2.40;2.30;;;19.70;68.80;;;;;;5081090;28;45742;-70
2023/05/13 08:09:38;;;;;;;2.40;2.30;;;19.60;68.90;;;;;;5080916;27;44679;-70
2023/05/13 08:12:06;;;;;;;2.77;2.57;;;19.50;69.00;;;;;;5076774;28;43406;-70
2023/05/13 08:14:36;;;;;;;2.37;2.27;;;19.50;69.50;;;;;;5072341;28;43386;-70
2023/05/13 08:17:05;;;;;;;2.90;2.80;;;19.50;69.60;;;;;;5075731;28;43800;-70
2023/05/13 08:19:33;;;;;;;2.83;2.63;;;19.40;69.50;;;;;;5074827;27;43445;-70
2023/05/13 08:22:01;;;;;;;2.27;2.20;;;19.40;69.50;;;;;;5085778;27;43418;-70
2023/05/13 08:24:29;;;;;;;2.40;2.30;;;19.40;69.60;;;;;;5077866;28;43428;-70
2023/05/13 08:26:56;;;;;;;2.63;2.50;;;19.30;69.90;;;;;;5082976;28;46021;-70
2023/05/13 08:29:25;;;;;;;2.80;2.60;;;19.30;70.00;;;;;;5076880;28;44962;-70
2023/05/13 08:31:54;;;;;;;2.30;2.20;;;19.30;69.80;;;;;;5079206;28;43363;-70
2023/05/13 08:34:22;;;;;;;2.17;2.07;;;19.30;69.80;;;;;;5082893;27;43509;-70
2023/05/13 08:36:50;;;;;;;2.43;2.33;;;19.30;69.80;;;;;;5083393;28;43926;-70
2023/05/13 08:39:18;;;;;;;2.50;2.40;;;19.30;69.90;;;;;;5080232;27;43480;-70
2023/05/13 08:41:46;;;;;;;2.40;2.30;;;19.30;70.30;;;;;;5078338;28;43485;-70
2023/05/13 08:44:14;;;;;;;2.50;2.40;;;19.30;70.30;;;;;;5085589;28;44617;-70
2023/05/13 08:46:44;;;;;;;2.70;2.60;;;19.40;70.00;;;;;;5078574;28;46431;-70
2023/05/13 08:49:14;;;;;;;2.60;2.33;;;19.50;69.50;;;;;;5081468;28;43520;-70
2023/05/13 08:51:43;;;;;;;2.40;2.30;;;19.60;69.10;;;;;;5083491;27;43513;-70
2023/05/13 08:54:11;;;;;;;2.57;2.47;;;19.70;69.00;;;;;;5084418;28;43441;-70
2023/05/13 08:56:39;;;;;;;2.37;2.27;;;19.60;68.80;;;;;;5068765;28;45947;-70
2023/05/13 08:59:07;;;;;;;2.40;2.30;;;19.60;68.90;;;;;;5079276;27;43501;-70
2023/05/13 09:01:35;;;;;;;2.53;2.43;;;19.50;69.00;;;;;;5084501;28;43429;-71
2023/05/13 09:04:06;;;;;;;2.53;2.43;;;19.40;69.20;;;;;;5083583;27;43493;-70
2023/05/13 09:06:35;;;;;;;2.60;2.50;;;19.40;69.70;;;;;;5079446;28;43607;-71
2023/05/13 09:09:04;;;;;;;2.60;2.50;;;19.40;69.60;;;;;;5084084;28;43442;-70
2023/05/13 09:11:33;;;;;;;2.30;2.20;;;19.30;69.60;;;;;;5088189;28;43408;-71
2023/05/13 09:14:04;;;;;;;2.57;2.47;;;19.30;69.60;;;;;;5084838;28;43401;-70
2023/05/13 09:16:32;;;;;;;2.40;2.30;;;19.30;69.80;;;;;;5087687;27;43621;-72
2023/05/13 09:19:02;;;;;;;2.40;2.30;;;19.30;70.30;;;;;;5083285;28;44687;-70
2023/05/13 09:21:31;;;;;;;2.40;2.30;;;19.30;70.00;;;;;;5086528;27;43424;-70
2023/05/13 09:24:12;;;;;;;2.50;2.40;;;19.40;69.90;;;;;;5078371;28;43473;-70
2023/05/13 09:26:40;;;;;;;2.30;2.20;;;19.40;69.70;;;;;;5087837;28;46255;-70
2023/05/13 09:29:18;;;;;;;2.40;2.30;;;19.40;69.70;;;;;;5085070;28;43541;-70
2023/05/13 09:31:47;;;;;;;2.30;2.20;;;19.30;70.00;;;;;;5075564;28;43413;-70
2023/05/13 09:34:15;;;;;;;2.77;2.60;;;19.40;70.00;;;;;;5080974;28;43456;-70
2023/05/13 09:36:43;;;;;;;2.50;2.40;;;19.50;69.80;;;;;;5075837;28;43929;-70
2023/05/13 09:39:12;;;;;;;2.20;2.13;;;19.50;69.50;;;;;;5066491;28;43563;-70
2023/05/13 09:41:43;;;;;;;2.20;2.10;;;19.40;69.40;;;;;;5088229;27;43460;-70
2023/05/13 09:44:11;;;;;;;2.57;2.47;;;19.40;69.60;;;;;;5078336;27;44401;-70
2023/05/13 09:46:39;;;;;;;2.43;2.33;;;19.50;69.80;;;;;;5083524;28;43770;-70
2023/05/13 09:49:07;;;;;;;2.23;2.13;;;19.40;69.50;;;;;;5083584;27;43988;-70
2023/05/13 09:51:35;;;;;;;2.30;2.20;;;19.40;69.60;;;;;;5087568;28;43427;-70
2023/05/13 09:54:05;;;;;;;2.20;2.10;;;19.40;69.70;;;;;;5071747;28;43446;-71
2023/05/13 09:56:37;;;;;;;2.30;2.20;;;19.40;69.80;;;;;;5077553;27;43875;-70
2023/05/13 09:59:05;;;;;;;2.13;2.03;;;19.40;70.10;;;;;;5081597;28;43478;-70
2023/05/13 10:01:33;;;;;;;2.30;2.20;;;19.40;69.90;;;;;;5069109;28;43498;-71
2023/05/13 10:04:02;;;;;;;1.90;1.90;;;19.40;69.90;;;;;;5085096;28;43423;-70
2023/05/13 10:06:30;;;;;;;2.40;2.30;;;19.40;70.00;;;;;;5074623;27;44518;-70
2023/05/13 10:08:59;;;;;;;2.43;2.33;;;19.30;69.90;;;;;;5084216;28;43601;-70
2023/05/13 10:11:28;;;;;;;2.43;2.30;;;19.30;70.00;;;;;;5085636;27;43481;-70
2023/05/13 10:14:01;;;;;;;2.50;2.40;;;19.30;70.30;;;;;;5083867;28;43916;-71
2023/05/13 10:16:29;;;;;;;2.00;1.90;;;19.30;70.20;;;;;;5082467;27;43781;-70
2023/05/13 10:18:58;;;;;;;2.43;2.33;;;19.40;70.00;;;;;;5081005;28;44986;-70
2023/05/13 10:21:26;;;;;;;2.20;2.10;;;19.50;69.70;;;;;;5079488;28;43444;-70
2023/05/13 10:23:54;;;;;;;2.20;2.10;;;19.50;69.50;;;;;;5074885;28;43691;-69
2023/05/13 10:26:22;;;;;;;2.20;2.10;;;19.50;69.50;;;;;;5085151;28;43919;-70
2023/05/13 10:28:50;;;;;;;2.20;2.10;;;19.50;69.80;;;;;;5077097;28;43406;-69
2023/05/13 10:31:19;;;;;;;2.00;2.00;;;19.40;69.60;;;;;;5080346;28;43419;-70
2023/05/13 10:33:47;;;;;;;2.40;2.30;;;19.40;69.60;;;;;;5085978;27;43351;-70
2023/05/13 10:36:33;;;;;;;2.03;2.03;;;19.40;69.70;;;;;;5082694;28;43859;-70
2023/05/13 10:39:29;;;;;;;2.10;2.00;;;19.40;69.80;;;;;;5070346;28;43400;-70
2023/05/13 10:42:19;;;;;;;2.20;2.10;;;19.40;70.10;;;;;;5066950;28;44118;-70
2023/05/13 10:44:47;;;;;;;2.10;2.00;;;19.40;70.70;;;;;;5070019;28;43546;-69
2023/05/13 10:47:30;;;;;;;2.17;2.07;;;19.40;70.00;;;;;;5072727;28;43624;-69
2023/05/13 10:50:03;;;;;;;2.40;2.30;;;19.30;70.00;;;;;;5073152;28;43442;-69
2023/05/13 10:52:41;;;;;;;1.83;1.83;;;19.30;70.00;;;;;;5079818;28;43506;-70
2023/05/13 10:55:15;;;;;;;2.00;1.90;;;19.30;70.30;;;;;;5076067;28;43446;-69
2023/05/13 10:57:59;;;;;;;2.00;2.00;;;19.40;70.30;;;;;;5078596;28;43984;-70
2023/05/13 11:00:30;;;;;;;2.20;2.10;;;19.50;69.90;;;;;;5069980;28;44266;-69
2023/05/13 11:03:13;;;;;;;2.23;2.13;;;19.60;69.50;;;;;;5076245;28;43493;-69
2023/05/13 11:05:45;;;;;;;2.00;2.00;;;19.70;69.30;;;;;;5083828;27;43997;-71
2023/05/13 11:08:38;;;;;;;2.10;2.10;;;19.70;69.10;;;;;;5077392;28;45387;-70
2023/05/13 11:11:27;;;;;;;2.10;2.00;;;19.60;69.10;;;;;;5072103;28;43421;-70
2023/05/13 11:13:55;;;;;;;2.47;2.37;;;19.50;69.30;;;;;;5078158;28;43543;-70
2023/05/13 11:16:23;;;;;;;2.23;2.20;;;19.50;69.50;;;;;;5078002;28;43487;-70
2023/05/13 11:18:55;;;;;;;2.43;2.33;;;19.40;69.80;;;;;;5084873;27;43840;-70
2023/05/13 11:21:29;;;;;;;1.83;1.83;;;19.40;69.80;;;;;;5076002;28;44491;-70
2023/05/13 11:23:58;;;;;;;1.97;1.87;;;19.40;69.80;;;;;;5071344;28;43974;-70
2023/05/13 11:26:26;;;;;;;1.83;1.83;;;19.40;69.90;;;;;;5079809;28;43359;-70
2023/05/13 11:28:58;;;;;;;1.80;1.80;;;19.40;70.00;;;;;;5076512;28;43957;-71
2023/05/13 11:31:27;;;;;;;1.97;1.97;;;19.40;70.20;;;;;;5079319;28;43430;-70
2023/05/13 11:34:09;;;;;;;2.00;2.00;;;19.40;70.10;;;;;;5068684;28;43421;-70
2023/05/13 11:36:44;;;;;;;1.87;1.87;;;19.40;70.10;;;;;;5072413;28;43480;-71
2023/05/13 11:39:14;;;;;;;1.97;1.97;;;19.40;70.10;;;;;;5068985;28;43678;-70
2023/05/13 11:41:44;;;;;;;2.10;2.10;;;19.30;70.10;;;;;;5077621;28;43569;-70
2023/05/13 11:44:13;;;;;;;1.87;1.77;;;19.30;70.10;;;;;;5077058;27;43487;-70
2023/05/13 11:46:54;;;;;;;2.40;2.30;;;19.30;70.30;;;;;;5071217;28;44032;-70
2023/05/13 11:49:34;;;;;;;2.10;2.07;;;19.30;70.90;;;;;;5079743;27;43665;-71
2023/05/13 11:52:05;;;;;;;1.80;1.80;;;19.30;70.10;;;;;;5072523;28;43351;-70
2023/05/13 11:54:39;;;;;;;2.23;2.13;;;19.30;70.10;;;;;;5071957;28;43481;-70
2023/05/13 11:57:15;;;;;;;1.80;1.80;;;19.30;70.20;;;;;;5072156;28;43446;-70
2023/05/13 11:59:49;;;;;;;1.80;1.80;;;19.30;70.40;;;;;;5070583;28;44083;-70
2023/05/13 12:02:20;;;;;;;1.90;1.90;;;19.40;70.40;;;;;;5074013;28;44939;-70
2023/05/13 12:04:50;;;;;;;1.87;1.83;;;19.40;70.10;;;;;;5078554;28;43581;-70
2023/05/13 12:07:22;;;;;;;1.80;1.80;;;19.60;69.70;;;;;;5073679;28;43554;-71
2023/05/13 12:09:50;;;;;;;2.20;2.10;;;19.70;69.30;;;;;;5073871;27;45721;-70
2023/05/13 12:12:19;;;;;;;1.80;1.80;;;19.80;69.10;;;;;;5078071;28;43447;-70
2023/05/13 12:14:49;;;;;;;1.90;1.90;;;19.80;69.00;;;;;;5080262;28;43435;-71
2023/05/13 12:17:17;;;;;;;1.93;1.93;;;19.70;69.10;;;;;;5079393;28;43407;-70
2023/05/13 12:20:23;;;;;;;1.73;1.73;;;19.60;69.20;;;;;;5077531;28;43906;-70
2023/05/13 12:22:56;;;;;;;1.73;1.73;;;19.50;69.50;;;;;;5075726;28;44482;-69
2023/05/13 12:25:46;;;;;;;2.00;1.90;;;19.50;69.80;;;;;;5083664;28;43645;-70
2023/05/13 12:28:16;;;;;;;2.00;1.90;;;19.50;69.70;;;;;;5078835;27;43413;-70
2023/05/13 12:30:49;;;;;;;2.03;1.77;;;19.50;70.50;;;;;;5082145;27;43671;-70
2023/05/13 12:33:17;;;;;;;2.20;2.10;;;19.40;69.70;;;;;;5080553;28;43497;-70
2023/05/13 12:35:50;;;;;;;1.93;1.80;;;19.40;70.00;;;;;;5079488;28;43514;-70
2023/05/13 12:38:20;;;;;;;2.10;2.00;;;19.40;70.10;;;;;;5081572;28;43616;-70
2023/05/13 12:40:48;;;;;;;2.00;1.90;;;19.40;70.00;;;;;;5072184;28;46083;-70
2023/05/13 12:43:17;;;;;;;1.80;1.80;;;19.40;70.00;;;;;;5077516;28;43494;-70
2023/05/13 12:45:46;;;;;;;1.80;1.80;;;19.40;70.10;;;;;;5079966;28;43495;-70
2023/05/13 12:48:14;;;;;;;2.30;2.20;;;19.30;70.10;;;;;;5080646;28;43631;-70
2023/05/13 12:50:42;;;;;;;2.10;2.00;;;19.30;70.40;;;;;;5074213;28;43743;-69
2023/05/13 12:53:11;;;;;;;1.80;1.80;;;19.40;70.30;;;;;;5075203;28;43391;-70
2023/05/13 12:55:39;;;;;;;1.90;1.90;;;19.50;70.00;;;;;;5076389;28;43386;-70
2023/05/13 12:58:09;;;;;;;2.20;2.10;;;19.50;69.70;;;;;;5075949;28;43573;-70
2023/05/13 13:00:37;;;;;;;1.90;1.80;;;19.50;69.50;;;;;;5073764;27;44022;-70
2023/05/13 13:03:07;;;;;;;1.80;1.80;;;19.50;69.50;;;;;;5075953;28;43393;-70